createdAt,value
2018-08-12T00:01:11.009Z,13.6
2018-08-12T00:11:56.641Z,13.3
2018-08-12T00:22:11.191Z,13.3
2018-08-12T00:32:56.469Z,13.0
2018-08-12T00:43:41.278Z,12.9
2018-08-12T00:53:54.978Z,12.9
2018-08-12T01:04:09.715Z,12.8
2018-08-12T01:14:23.348Z,12.7
2018-08-12T01:24:37.485Z,12.5
2018-08-12T01:34:51.799Z,12.4
2018-08-12T01:45:37.570Z,12.1
2018-08-12T01:56:22.985Z,12.0
2018-08-12T02:07:08.358Z,11.9
2018-08-12T02:17:22.249Z,11.8
2018-08-12T02:28:07.957Z,11.6
2018-08-12T02:38:53.354Z,11.5
2018-08-12T02:49:38.477Z,11.4
2018-08-12T02:59:49.958Z,11.4
2018-08-12T03:10:03.824Z,11.3
2018-08-12T03:20:15.525Z,11.2
2018-08-12T03:31:00.911Z,11.1
2018-08-12T03:41:46.689Z,11.1
2018-08-12T03:52:32.348Z,11.1
2018-08-12T04:02:46.660Z,11.1
2018-08-12T04:13:01.259Z,11.1
2018-08-12T04:23:15.280Z,11.0
2018-08-12T04:34:00.663Z,11.0
2018-08-12T04:44:31.216Z,11.0
2018-08-12T04:54:44.998Z,11.0
2018-08-12T05:04:59.609Z,11.1
2018-08-12T05:16:09.295Z,11.5
2018-08-12T05:26:23.767Z,11.5
2018-08-12T05:37:08.893Z,12.2
2018-08-12T05:47:23.382Z,12.2
2018-08-12T05:57:39.001Z,12.7
2018-08-12T06:07:52.718Z,13.1
2018-08-12T06:18:07.146Z,13.6
2018-08-12T06:29:22.640Z,14.6
2018-08-12T06:49:59.203Z,15.1
2018-08-12T07:12:01.984Z,17.0
2018-08-12T07:22:32.540Z,17.1
2018-08-12T07:33:39.113Z,17.9
2018-08-12T07:43:53.282Z,17.9
2018-08-12T07:54:39.205Z,18.3
2018-08-12T08:06:21.136Z,19.0
2018-08-12T08:28:31.571Z,19.6
2018-08-12T08:38:45.311Z,20.6
2018-08-12T08:49:46.881Z,22.0
2018-08-12T09:00:52.491Z,23.1
2018-08-12T09:12:11.768Z,25.0
2018-08-12T09:22:26.522Z,25.0
2018-08-12T09:33:05.710Z,26.1
2018-08-12T10:04:06.455Z,29.4
2018-08-12T10:15:36.668Z,31.7
2018-08-12T10:26:21.821Z,33.2
2018-08-12T10:36:51.209Z,33.2
2018-08-12T10:47:38.015Z,34.1
2018-08-12T10:58:07.594Z,34.6
2018-08-12T11:08:29.008Z,34.8
2018-08-12T11:20:14.493Z,35.2
2018-08-12T11:30:27.879Z,35.2
2018-08-12T11:41:48.886Z,35.3
2018-08-12T11:52:00.755Z,35.3
2018-08-12T12:03:18.079Z,35.4
2018-08-12T12:13:31.839Z,35.4
2018-08-12T12:25:09.481Z,35.5
2018-08-12T12:35:47.294Z,35.5
2018-08-12T12:47:19.455Z,35.7
2018-08-12T12:58:34.974Z,35.7
2018-08-12T13:08:59.537Z,35.9
2018-08-12T13:20:03.861Z,36.0
2018-08-12T13:30:17.792Z,36.3
2018-08-12T13:41:59.376Z,36.6
2018-08-12T13:53:18.046Z,36.6
2018-08-12T14:04:09.646Z,36.8
2018-08-12T14:15:52.114Z,36.6
2018-08-12T14:26:54.189Z,36.6
2018-08-12T14:37:08.096Z,36.5
2018-08-12T14:47:36.690Z,36.5
2018-08-12T15:08:38.675Z,36.0
2018-08-12T15:18:52.655Z,35.6
2018-08-12T15:29:23.813Z,35.0
2018-08-12T15:39:35.369Z,34.5
2018-08-12T15:49:49.914Z,34.0
2018-08-12T16:11:19.511Z,33.2
2018-08-12T16:21:37.418Z,32.8
2018-08-12T16:42:26.776Z,32.0
2018-08-12T16:52:41.257Z,31.7
2018-08-12T17:03:26.822Z,31.2
2018-08-12T17:13:41.413Z,31.2
2018-08-12T17:23:56.267Z,30.9
2018-08-12T17:34:52.121Z,30.2
2018-08-12T17:45:37.927Z,29.9
2018-08-12T17:56:25.014Z,29.4
2018-08-12T18:07:05.509Z,29.4
2018-08-12T18:17:20.709Z,29.0
2018-08-12T18:28:06.723Z,28.1
2018-08-12T18:38:22.055Z,28.1
2018-08-12T18:49:06.896Z,27.2
2018-08-12T18:59:52.925Z,26.7
2018-08-12T19:21:59.386Z,25.8
2018-08-12T19:32:45.273Z,25.4
2018-08-12T19:42:59.582Z,25.4
2018-08-12T19:53:13.903Z,25.0
2018-08-12T20:03:28.084Z,24.7
2018-08-12T20:13:42.040Z,24.3
2018-08-12T20:23:56.565Z,24.0
2018-08-12T20:34:10.578Z,23.7
2018-08-12T20:44:26.072Z,23.5
2018-08-12T20:55:11.390Z,23.0
2018-08-12T21:06:02.145Z,22.7
2018-08-12T21:16:50.578Z,22.4
2018-08-12T21:27:04.774Z,22.4
2018-08-12T21:37:50.245Z,21.9
2018-08-12T21:48:37.465Z,21.7
2018-08-12T21:59:03.427Z,21.7
2018-08-12T22:20:18.064Z,21.3
2018-08-12T22:30:31.627Z,21.2
2018-08-12T22:40:50.841Z,21.0
2018-08-12T22:51:09.565Z,20.9
2018-08-12T23:01:23.510Z,20.8
2018-08-12T23:11:40.641Z,20.6
2018-08-12T23:22:32.092Z,20.4
2018-08-12T23:32:48.240Z,20.4
2018-08-12T23:43:02.998Z,20.2
2018-08-12T23:53:17.189Z,20.1
